KDVT/DVT METAR and TAF weather

Enter ICAO airport designator
Station Type Date Time Source
KDVT METAR 2018/01/19 22:53 UTC NOAA

KDVT 192253Z VRB03KT 10SM CLR 22/M04 A2989 RMK AO2 SLP108 T02221044


Station Type Date Time Source
KDVT Decoded METAR 2018/01/19 22:53 UTC NOAA

PHOENIX-DEER VALLEY MUN, AZ, United States (KDVT) 33-41N 112-04W 443M
Jan 19, 2018 - 05:53 PM EST / 2018.01.19 2253 UTC
Wind: Variable at 3 MPH (3 KT):0
Visibility: 10 mile(s):0
Sky conditions: clear
Temperature: 72.0 F (22.2 C)
Dew Point: 24.1 F (-4.4 C)
Relative Humidity: 16%
Pressure (altimeter): 29.89 in. Hg (1012 hPa)
ob: KDVT 192253Z VRB03KT 10SM CLR 22/M04 A2989 RMK AO2 SLP108 T02221044
cycle: 23

Station Type Date Time Source
KDVT TAF UTC NOAA

Error!


Example: see airport list